Time;durP1;ratioP1;P1;durP2;ratioP2;P2;SDS_P1;SDS_P2;PMS_P1;PMS_P2;Temp;Humidity;BMP_temperature;BMP_pressure;BME280_temperature;BME280_humidity;BME280_pressure;Samples;Min_cycle;Max_cycle;Signal;HPM_P1;HPM_P2
2022/05/25 00:01:12;;;;;;;3.92;3.55;;;;;;;;;;4975406;28;20069;-86
2022/05/25 00:03:53;;;;;;;5.75;3.50;;;;;;;;;;4972322;28;20039;-81
2022/05/25 00:06:19;;;;;;;3.75;3.38;;;;;;;;;;4955494;28;20047;-85
2022/05/25 00:08:46;;;;;;;6.47;3.55;;;;;;;;;;4957986;28;20027;-86
2022/05/25 00:11:12;;;;;;;4.10;3.70;;;;;;;;;;4973949;28;20046;-86
2022/05/25 00:13:38;;;;;;;4.03;3.53;;;;;;;;;;4971843;28;20027;-85
2022/05/25 00:16:05;;;;;;;6.13;3.70;;;;;;;;;;4954926;28;20039;-85
2022/05/25 00:21:36;;;;;;;4.93;3.78;;;;;;;;;;4961701;28;20051;-84
2022/05/25 00:24:03;;;;;;;5.32;4.55;;;;;;;;;;4948502;29;20031;-86
2022/05/25 00:26:32;;;;;;;5.28;4.38;;;;;;;;;;4946368;29;20050;-88
2022/05/25 00:28:58;;;;;;;7.97;4.60;;;;;;;;;;4962836;28;20036;-84
2022/05/25 00:31:24;;;;;;;8.18;4.63;;;;;;;;;;4964617;23;20767;-87
2022/05/25 00:33:50;;;;;;;6.07;4.65;;;;;;;;;;4953999;28;20030;-87
2022/05/25 00:36:29;;;;;;;7.13;4.90;;;;;;;;;;4966255;28;20055;-83
2022/05/25 00:38:55;;;;;;;5.32;4.82;;;;;;;;;;4961013;28;20673;-86
2022/05/25 00:41:31;;;;;;;5.55;5.00;;;;;;;;;;4963445;28;20052;-84
2022/05/25 00:43:57;;;;;;;6.45;4.70;;;;;;;;;;4963221;28;20098;-86
2022/05/25 00:46:24;;;;;;;7.80;4.47;;;;;;;;;;4963015;28;20047;-83
2022/05/25 00:48:52;;;;;;;5.30;4.80;;;;;;;;;;4967680;28;20134;-87
2022/05/25 00:51:22;;;;;;;5.60;4.97;;;;;;;;;;4960907;28;20035;-86
2022/05/25 00:54:00;;;;;;;8.52;5.43;;;;;;;;;;4966464;28;20147;-85
2022/05/25 00:56:44;;;;;;;6.00;5.40;;;;;;;;;;4943799;28;20031;-87
2022/05/25 00:59:16;;;;;;;6.20;5.60;;;;;;;;;;4981268;28;20181;-87
2022/05/25 01:01:43;;;;;;;8.93;6.18;;;;;;;;;;4958643;28;20043;-88
2022/05/25 01:04:10;;;;;;;8.27;6.13;;;;;;;;;;4960506;28;20074;-88
2022/05/25 01:06:55;;;;;;;9.65;6.10;;;;;;;;;;4943746;28;20043;-87
2022/05/25 01:09:34;;;;;;;7.57;6.20;;;;;;;;;;4961415;28;20047;-87
2022/05/25 01:12:12;;;;;;;7.15;6.07;;;;;;;;;;4979321;28;20098;-87
2022/05/25 01:14:38;;;;;;;7.45;6.15;;;;;;;;;;4976317;28;20063;-85
2022/05/25 01:17:34;;;;;;;9.77;6.55;;;;;;;;;;4963878;28;20038;-86
2022/05/25 01:23:51;;;;;;;7.78;5.70;;;;;;;;;;4973708;28;20061;-85
2022/05/25 01:26:39;;;;;;;9.15;6.28;;;;;;;;;;4944485;28;20062;-87
2022/05/25 01:29:24;;;;;;;7.00;6.18;;;;;;;;;;4961510;28;20047;-82
2022/05/25 01:31:56;;;;;;;12.93;6.68;;;;;;;;;;4970720;28;20073;-87
2022/05/25 01:34:41;;;;;;;8.80;6.20;;;;;;;;;;4962964;28;20085;-87
2022/05/25 01:37:19;;;;;;;7.10;6.25;;;;;;;;;;4976325;28;20050;-85
2022/05/25 01:39:54;;;;;;;8.30;7.25;;;;;;;;;;4976971;28;20055;-85
2022/05/25 01:42:25;;;;;;;9.73;7.07;;;;;;;;;;4955677;28;20141;-87
2022/05/25 01:44:53;;;;;;;8.52;7.47;;;;;;;;;;4955123;28;20102;-86
2022/05/25 01:47:21;;;;;;;12.25;7.47;;;;;;;;;;4962087;28;20075;-86
2022/05/25 01:53:15;;;;;;;15.27;8.20;;;;;;;;;;4997440;23;20146;-86
2022/05/25 01:55:52;;;;;;;10.57;7.60;;;;;;;;;;4995658;28;20038;-84
2022/05/25 01:58:19;;;;;;;10.35;8.07;;;;;;;;;;4995604;28;20057;-85
2022/05/25 02:00:59;;;;;;;10.60;8.10;;;;;;;;;;4996042;28;20041;-86
2022/05/25 02:06:25;;;;;;;12.60;8.80;;;;;;;;;;4978981;28;20105;-88
2022/05/25 02:08:54;;;;;;;10.60;8.27;;;;;;;;;;4998229;28;20483;-87
2022/05/25 02:11:23;;;;;;;10.25;8.68;;;;;;;;;;4963461;28;21137;-88
2022/05/25 02:13:56;;;;;;;12.50;9.50;;;;;;;;;;4974237;28;20077;-85
2022/05/25 02:16:34;;;;;;;11.73;9.45;;;;;;;;;;4977552;28;20034;-86
2022/05/25 02:19:16;;;;;;;11.20;9.63;;;;;;;;;;4960281;28;20053;-88
2022/05/25 02:21:47;;;;;;;11.70;8.57;;;;;;;;;;4959579;28;20077;-87
2022/05/25 02:24:14;;;;;;;16.40;9.07;;;;;;;;;;4975520;28;20117;-83
2022/05/25 02:26:45;;;;;;;10.85;9.40;;;;;;;;;;4955689;28;20205;-84
2022/05/25 02:29:23;;;;;;;12.98;9.38;;;;;;;;;;4994588;28;20038;-84
2022/05/25 02:31:55;;;;;;;11.70;9.57;;;;;;;;;;4990947;28;20121;-84
2022/05/25 02:34:23;;;;;;;10.50;9.48;;;;;;;;;;4959919;28;20108;-83
2022/05/25 02:36:50;;;;;;;13.77;10.27;;;;;;;;;;4961278;28;20048;-84
2022/05/25 02:39:16;;;;;;;10.82;9.63;;;;;;;;;;4976954;28;20506;-86
2022/05/25 02:41:46;;;;;;;13.63;9.70;;;;;;;;;;4997536;28;20072;-86
2022/05/25 02:44:22;;;;;;;12.88;10.32;;;;;;;;;;4963607;28;20114;-85
2022/05/25 02:46:48;;;;;;;13.07;10.00;;;;;;;;;;5002504;28;20078;-85
2022/05/25 02:49:14;;;;;;;12.82;9.80;;;;;;;;;;5004088;28;20050;-84
2022/05/25 02:51:41;;;;;;;11.52;10.32;;;;;;;;;;4985659;28;20042;-87
2022/05/25 02:54:07;;;;;;;17.42;10.20;;;;;;;;;;4979218;28;20421;-87
2022/05/25 02:56:34;;;;;;;14.43;10.30;;;;;;;;;;4977800;28;20073;-87
2022/05/25 02:59:00;;;;;;;13.90;10.25;;;;;;;;;;4979729;28;20065;-88
2022/05/25 03:01:26;;;;;;;14.75;10.82;;;;;;;;;;4961805;28;20057;-90
2022/05/25 03:03:53;;;;;;;13.63;10.95;;;;;;;;;;4980321;28;20066;-87
2022/05/25 03:06:19;;;;;;;12.57;10.80;;;;;;;;;;4975671;28;20097;-86
2022/05/25 03:09:04;;;;;;;14.90;11.43;;;;;;;;;;4975595;28;20054;-89
2022/05/25 03:11:45;;;;;;;14.23;11.60;;;;;;;;;;4977623;28;20153;-88
2022/05/25 03:14:30;;;;;;;16.00;12.10;;;9.00;99.90;;;;;;4961609;28;20081;-86
2022/05/25 03:16:58;;;;;;;15.23;11.90;;;;;;;;;;4973633;28;20054;-86
2022/05/25 03:19:25;;;;;;;17.17;12.57;;;;;;;;;;4991418;28;20026;-87
2022/05/25 03:21:51;;;;;;;14.35;11.90;;;;;;;;;;4993843;28;20039;-88
2022/05/25 03:24:17;;;;;;;15.75;12.60;;;;;;;;;;4993545;28;20041;-88
2022/05/25 03:26:43;;;;;;;14.25;12.13;;;;;;;;;;4994802;28;20053;-86
2022/05/25 03:29:11;;;;;;;15.48;13.55;;;;;;;;;;4993401;28;20110;-86
2022/05/25 03:34:31;;;;;;;15.57;13.40;;;;;;;;;;4957796;28;20045;-86
2022/05/25 03:36:57;;;;;;;19.05;14.35;;;;;;;;;;4974156;28;20116;-87
2022/05/25 03:39:24;;;;;;;20.25;15.52;;;;;;;;;;4993974;28;20034;-89
2022/05/25 03:41:57;;;;;;;19.80;15.60;;;;;;;;;;4987745;28;20101;-83
2022/05/25 03:44:23;;;;;;;19.52;14.70;;;;;;;;;;4958438;28;20065;-87
2022/05/25 03:46:59;;;;;;;17.55;15.18;;;;;;;;;;4955755;28;20402;-86
2022/05/25 03:49:26;;;;;;;30.05;16.38;;;;;;;;;;4975648;28;20465;-84
2022/05/25 03:51:52;;;;;;;18.52;16.08;;;;;;;;;;4973636;28;20042;-82
2022/05/25 03:54:18;;;;;;;20.55;15.23;;;;;;;;;;4995434;28;20054;-85
2022/05/25 03:56:44;;;;;;;22.92;17.13;;;;;;;;;;4977033;28;20043;-87
2022/05/25 03:59:10;;;;;;;22.92;16.55;;;;;;;;;;4976848;28;20130;-84
2022/05/25 04:01:37;;;;;;;19.75;16.90;;;;;;;;;;4996452;28;20034;-88
2022/05/25 04:04:04;;;;;;;22.98;16.98;;;;;;;;;;4995478;28;20034;-84
2022/05/25 04:06:30;;;;;;;21.50;16.85;;;;;;;;;;4983648;28;20083;-84
2022/05/25 04:09:02;;;;;;;26.80;17.77;;;;;;;;;;4972897;28;20038;-88
2022/05/25 04:11:38;;;;;;;25.33;17.40;;;;;;;;;;4972352;28;20529;-85
2022/05/25 04:14:04;;;;;;;26.83;18.25;;;;;;;;;;4996049;28;20089;-85
2022/05/25 04:16:31;;;;;;;25.88;19.20;;;;;;;;;;4981671;28;20050;-82
2022/05/25 04:18:57;;;;;;;28.25;19.70;;;;;;;;;;4960857;28;20057;-86
2022/05/25 04:21:24;;;;;;;29.92;19.35;;;;;;;;;;4985983;28;20157;-86
2022/05/25 04:24:03;;;;;;;24.58;19.02;;;;;;;;;;4979819;28;20510;-89
2022/05/25 04:26:30;;;;;;;26.83;19.52;;;;;;;;;;4994049;28;20042;-86
2022/05/25 04:28:57;;;;;;;27.75;21.10;;;;;;;;;;4996037;28;20034;-81
2022/05/25 04:31:26;;;;;;;26.20;20.40;;;;;;;;;;4956436;28;21137;-84
2022/05/25 04:33:52;;;;;;;31.02;21.50;;;;;;;;;;4976573;28;20043;-84
2022/05/25 04:36:18;;;;;;;33.08;22.17;;;;;;;;;;4972323;28;20079;-85
2022/05/25 04:38:45;;;;;;;32.80;21.58;;;;;;;;;;4987999;28;20499;-85
2022/05/25 04:41:29;;;;;;;32.55;21.60;;;;;;;;;;4974629;28;20105;-88
2022/05/25 04:43:55;;;;;;;25.50;19.70;;;;;;;;;;4960190;28;20100;-85
2022/05/25 04:46:21;;;;;;;28.90;20.58;;;;;;;;;;4961775;28;20047;-86
2022/05/25 04:48:47;;;;;;;27.52;19.42;;;;;;;;;;4994293;28;20038;-87
2022/05/25 04:51:14;;;;;;;25.70;19.10;;;;;;;;;;4975658;28;20034;-85
2022/05/25 04:53:44;;;;;;;30.63;20.48;;;;;;;;;;4974604;28;20081;-88
2022/05/25 04:58:55;;;;;;;31.42;20.13;;;;;;;;;;4990436;28;20054;-84
2022/05/25 05:01:22;;;;;;;30.20;19.70;;;;;;;;;;4976664;28;20141;-83
2022/05/25 05:03:50;;;;;;;28.00;19.45;;;;;;;;;;4991350;28;20408;-86
2022/05/25 05:06:16;;;;;;;29.13;19.88;;;;;;;;;;4974246;28;20146;-83
2022/05/25 05:08:43;;;;;;;26.58;19.48;;;;;;;;;;4972682;28;20034;-87
2022/05/25 05:11:10;;;;;;;28.45;17.88;;;;;;;;;;4990522;28;20097;-83
2022/05/25 05:13:50;;;;;;;;;;;;;;;;;;;;;
2022/05/25 05:16:17;;;;;;;34.03;17.00;;;;;;;;;;4969893;28;20051;-85
2022/05/25 05:18:43;;;;;;;25.52;17.77;;;;;;;;;;4956467;28;20710;-83
2022/05/25 05:21:10;;;;;;;23.38;17.17;;;;;;;;;;4960118;28;20050;-87
2022/05/25 05:23:39;;;;;;;22.30;16.20;;;;;;;;;;4959295;28;20038;-84
2022/05/25 05:26:11;;;;;;;18.35;15.50;;;;;;;;;;4975107;28;20061;-82
2022/05/25 05:28:39;;;;;;;23.08;16.73;;;;;;;;;;4957583;28;20038;-84
2022/05/25 05:31:07;;;;;;;20.42;16.15;;;;;;;;;;4973260;28;20039;-85
2022/05/25 05:33:33;;;;;;;24.92;16.13;;;;;;;;;;4973893;28;20098;-86
2022/05/25 05:36:06;;;;;;;22.73;16.77;;;;;;;;;;5004467;28;20045;-80
2022/05/25 05:38:34;;;;;;;22.45;14.50;;;;;;;;;;4958137;28;20105;-85
2022/05/25 05:41:00;;;;;;;21.38;16.38;;;;;;;;;;4960600;28;20066;-83
2022/05/25 05:43:27;;;;;;;21.88;15.20;;;;;;;;;;4985323;28;20067;-83
2022/05/25 05:46:06;;;;;;;18.45;13.93;;;;;;;;;;4989571;28;20046;-88
2022/05/25 05:48:33;;;;;;;19.23;14.68;;;;;;;;;;4987406;28;20434;-83
2022/05/25 05:51:01;;;;;;;19.20;15.25;;;;;;;;;;4971191;28;20487;-82
2022/05/25 05:53:28;;;;;;;18.08;14.20;;;;;;;;;;4991566;28;20135;-81
2022/05/25 05:55:58;;;;;;;16.55;12.98;;;;;;;;;;4973606;28;20096;-83
2022/05/25 05:58:24;;;;;;;18.48;13.38;;;;;;;;;;4961367;28;20073;-85
2022/05/25 06:00:55;;;;;;;18.58;13.80;;;;;;;;;;4993625;28;20046;-85
2022/05/25 06:03:21;;;;;;;22.00;13.02;;;;;;;;;;4972935;28;20046;-84
2022/05/25 06:05:47;;;;;;;22.58;13.52;;;;;;;;;;4976657;28;20066;-82
2022/05/25 06:08:15;;;;;;;17.60;14.52;;;;;;;;;;4983890;28;20057;-84
2022/05/25 06:10:42;;;;;;;19.52;12.68;;;;;;;;;;4998722;28;20118;-85
2022/05/25 06:13:09;;;;;;;16.77;11.75;;;;;;;;;;4971677;28;20057;-82
2022/05/25 06:21:05;;;;;;;15.13;11.80;;;;;;;;;;4994846;28;20065;-86
2022/05/25 06:23:31;;;;;;;18.13;12.93;;;;;;;;;;4977012;28;20046;-81
2022/05/25 06:25:57;;;;;;;16.83;11.13;;;;;;;;;;4994423;28;20537;-85
2022/05/25 06:28:24;;;;;;;17.63;12.07;;;;;;;;;;4993550;28;20046;-83
2022/05/25 06:30:52;;;;;;;14.18;11.25;;;;;;;;;;4994515;28;20047;-86
2022/05/25 06:33:18;;;;;;;14.05;10.80;;;;;;;;;;4993345;28;20054;-86
2022/05/25 06:35:44;;;;;;;14.90;10.75;;;;;;;;;;4978694;28;20042;-85
2022/05/25 06:38:10;;;;;;;13.63;10.15;;;;;;;;;;4997962;28;20035;-83
2022/05/25 06:40:39;;;;;;;17.42;11.27;;;;;;;;;;4982551;28;20133;-82
2022/05/25 06:43:17;;;;;;;14.80;10.00;;;;;;;;;;4981295;28;20483;-83
2022/05/25 06:45:43;;;;;;;15.75;10.57;;;;;;;;;;4979527;28;20054;-85
2022/05/25 06:48:12;;;;;;;14.25;8.85;;;;;;;;;;4982449;28;20039;-80
2022/05/25 06:50:38;;;;;;;9.77;8.75;;;;;;;;;;4964303;28;20613;-84
2022/05/25 06:53:04;;;;;;;12.95;9.13;;;;;;;;;;4999824;28;20435;-84
2022/05/25 06:55:30;;;;;;;9.50;8.13;;;;;;;;;;4979668;28;20494;-81
2022/05/25 06:57:56;;;;;;;11.23;8.35;;;;;;;;;;4999577;28;20041;-81
2022/05/25 07:00:22;;;;;;;16.98;8.60;;;;;;;;;;4997902;28;20057;-83
2022/05/25 07:03:02;;;;;;;9.32;7.45;;;;;;;;;;4979866;28;20073;-81
2022/05/25 07:05:28;;;;;;;10.18;7.22;;;;;;;;;;4998385;28;20054;-85
2022/05/25 07:07:54;;;;;;;10.77;6.43;;;;;;;;;;4979387;28;20038;-83
2022/05/25 07:10:20;;;;;;;10.93;7.22;;;;;;;;;;4999370;28;20042;-82
2022/05/25 07:12:47;;;;;;;8.60;6.45;;;;;;;;;;4996610;28;20042;-81
2022/05/25 07:15:13;;;;;;;8.07;6.00;;;;;;;;;;4965085;28;20094;-83
2022/05/25 07:17:39;;;;;;;8.15;5.75;;;;;;;;;;4977830;28;20061;-82
2022/05/25 07:20:06;;;;;;;7.78;6.18;;;;;;;;;;4997859;28;20052;-81
2022/05/25 07:22:33;;;;;;;8.52;5.80;;;;;;;;;;4980417;28;20051;-82
2022/05/25 07:24:59;;;;;;;10.25;6.70;;;;;;;;;;4997869;28;20045;-84
2022/05/25 07:27:25;;;;;;;8.45;5.40;;;;;;;;;;4998268;28;20081;-81
2022/05/25 07:29:51;;;;;;;8.50;5.63;;;;;;;;;;4979231;28;20046;-83
2022/05/25 07:32:20;;;;;;;8.85;5.95;;;;;;;;;;4981190;28;20052;-81
2022/05/25 07:37:24;;;;;;;16.38;7.80;;;;;;;;;;5018172;23;20101;-89
2022/05/25 07:40:13;;;;;;;9.38;5.50;;;;;;;;;;4968454;28;20035;-88
2022/05/25 07:43:03;;;;;;;8.32;5.88;;;;;;;;;;4949659;23;20056;-89
2022/05/25 07:50:41;;;;;;;9.07;4.10;;;;;;;;;;5000142;28;20054;-91
2022/05/25 07:56:38;;;;;;;5.30;3.88;;;;;;;;;;4851035;29;20602;-91
2022/05/25 08:16:20;;;;;;;7.43;4.43;;;;;;;;;;4966842;29;20207;-88
2022/05/25 08:22:45;;;;;;;9.00;5.32;;;;;;;;;;4951708;29;20050;-90
2022/05/25 08:28:50;;;;;;;11.63;5.30;;;;;;;;;;4994083;28;20526;-87
2022/05/25 09:12:36;;;;;;;5.67;3.17;;;;;;;;;;4984589;28;20521;-88
2022/05/25 09:15:19;;;;;;;3.58;3.20;;;;;;;;;;4980869;28;20050;-88
2022/05/25 09:19:06;;;;;;;5.45;3.60;;;17.60;99.90;;;;;;4917915;29;20059;-92
2022/05/25 09:24:11;;;;;;;3.90;3.50;;;;;;;;;;5035570;23;20472;-88
2022/05/25 09:37:49;;;;;;;4.25;2.47;;;;;;;;;;4959981;29;20037;-90
2022/05/25 09:47:00;;;;;;;4.72;2.58;;;;;;;;;;5001083;28;20101;-88
2022/05/25 09:49:51;;;;;;;4.32;2.90;;;;;;;;;;4999250;28;20058;-90
2022/05/25 09:52:27;;;;;;;7.05;2.35;;;;;;;;;;4999704;28;20070;-92
2022/05/25 10:12:32;;;;;;;3.42;2.83;;;;;;;;;;4907025;29;20064;-88
2022/05/25 10:15:35;;;;;;;3.03;2.17;;;;;;;;;;5078333;23;20356;-88
2022/05/25 10:37:36;;;;;;;7.90;2.33;;;;;;;;;;4989110;28;20051;-92
2022/05/25 10:43:16;;;;;;;5.95;2.88;;;;;;;;;;4993734;23;20051;-88
2022/05/25 10:45:51;;;;;;;2.50;2.28;;;;;;;;;;4970009;28;20496;-92
2022/05/25 10:51:09;;;;;;;3.10;2.28;;;;;;;;;;5035105;23;20056;-89
2022/05/25 10:56:41;;;;;;;3.97;2.22;;;;;;;;;;5048151;28;20121;-88
2022/05/25 10:59:16;;;;;;;7.15;2.90;;;;;;;;;;5016051;28;20072;-88
2022/05/25 11:01:43;;;;;;;4.13;2.30;;;;;;;;;;5015569;28;20038;-92
2022/05/25 11:04:40;;;;;;;4.72;2.88;;;;;;;;;;5009517;28;20045;-91
2022/05/25 11:14:32;;;;;;;4.85;3.00;;;;;;;;;;5021331;28;20056;-87
2022/05/25 11:20:52;;;;;;;3.88;2.90;;;;;;;;;;5147843;23;20054;-84
2022/05/25 11:23:18;;;;;;;5.03;2.83;;;;;;;;;;5300390;22;20021;-89
2022/05/25 11:42:40;;;;;;;17.38;6.25;;;;;;;;;;5141928;23;20127;-92
2022/05/25 11:45:14;;;;;;;16.88;5.55;;;;;;;;;;4978970;28;20082;-88
2022/05/25 13:48:13;;;;;;;3.83;1.00;;;;;;;;;;5080876;23;20059;-86
2022/05/25 14:23:40;;;;;;;2.97;0.60;;;18.70;99.90;;;;;;4971410;28;20050;-85
2022/05/25 14:48:11;;;;;;;3.47;0.70;;;;;;;;;;4970304;28;20107;-84
2022/05/25 14:51:14;;;;;;;3.55;0.80;;;;;;;;;;4938099;28;20055;-84
2022/05/25 14:54:02;;;;;;;7.65;1.17;;;;;;;;;;4960433;28;20049;-87
2022/05/25 14:56:35;;;;;;;3.05;0.68;;;;;;;;;;4934807;28;20042;-83
2022/05/25 14:59:08;;;;;;;3.05;0.82;;;;;;;;;;4942098;28;20057;-83
2022/05/25 15:01:48;;;;;;;;;;;;;;;;;;;;;
2022/05/25 15:04:40;;;;;;;4.15;0.90;;;;;;;;;;4957416;28;20041;-87
2022/05/25 15:07:25;;;;;;;3.72;1.88;;;;;;;;;;4959513;28;20062;-83
2022/05/25 15:10:11;;;;;;;3.30;0.80;;;;;;;;;;4976929;28;20042;-88
2022/05/25 15:12:44;;;;;;;2.45;1.15;;;;;;;;;;4980202;28;20097;-84
2022/05/25 15:18:34;;;;;;;3.15;0.88;;;;;;;;;;4939736;29;20078;-83
2022/05/25 15:21:03;;;;;;;4.00;0.90;;;;;;;;;;4937817;29;20066;-83
2022/05/25 15:23:32;;;;;;;2.80;0.90;;;;;;;;;;4922415;29;20052;-85
2022/05/25 15:26:09;;;;;;;3.60;0.70;;;;;;;;;;4944054;29;20062;-88
2022/05/25 15:28:35;;;;;;;3.70;0.70;;;;;;;;;;4946333;28;20056;-87
2022/05/25 15:31:11;;;;;;;5.75;0.77;;;;;;;;;;4967267;29;20109;-83
2022/05/25 15:33:38;;;;;;;4.25;0.80;;;;;;;;;;4960164;28;20054;-88
2022/05/25 15:36:12;;;;;;;3.83;0.70;;;;;;;;;;4961575;28;20161;-86
2022/05/25 15:38:39;;;;;;;3.70;0.80;;;;;;;;;;4959093;28;20035;-87
2022/05/25 15:41:08;;;;;;;4.70;0.80;;;;;;;;;;4954851;28;20038;-88
2022/05/25 15:43:38;;;;;;;3.50;0.75;;;;;;;;;;4936954;28;20051;-85
2022/05/25 15:52:37;;;;;;;3.08;0.85;;;;;;;;;;4960813;28;20138;-86
2022/05/25 15:55:11;;;;;;;3.28;0.95;;;;;;;;;;4935604;29;20185;-82
2022/05/25 15:57:41;;;;;;;;;;;;;;;;;;4957209;29;20065;-83
2022/05/25 16:03:34;;;;;;;7.78;1.25;;;;;;;;;;4953676;29;20043;-84
2022/05/25 16:11:29;;;;;;;1.92;0.70;;;;;;;;;;4922585;29;20043;-84
2022/05/25 16:13:59;;;;;;;3.63;0.95;;;;;;;;;;4940945;29;20091;-86
2022/05/25 16:26:48;;;;;;;9.45;1.20;;;;;;;;;;4944653;29;20103;-84
2022/05/25 16:29:16;;;;;;;6.10;1.38;;;;;;;;;;4943168;29;20035;-85
2022/05/25 16:31:49;;;;;;;3.45;1.13;;;;;;;;;;4965313;28;20039;-86
2022/05/25 16:34:16;;;;;;;7.53;1.27;;;;;;;;;;4957276;28;20050;-86
2022/05/25 16:36:42;;;;;;;6.35;1.23;;;;;;;;;;4941006;29;20044;-86
2022/05/25 16:39:09;;;;;;;7.38;1.65;;;;;;;;;;4927691;29;20130;-85
2022/05/25 16:41:37;;;;;;;8.07;1.48;;;;;;;;;;4962546;28;20043;-84
2022/05/25 16:44:05;;;;;;;8.38;1.60;;;;;;;;;;4942548;29;20566;-86
2022/05/25 16:46:31;;;;;;;5.03;1.00;;;;;;;;;;4941288;29;20039;-85
2022/05/25 16:49:29;;;;;;;6.47;1.20;;;;;;;;;;4941018;28;20039;-85
2022/05/25 16:51:56;;;;;;;5.47;1.38;;;;;;;;;;4957483;29;20392;-84
2022/05/25 16:54:41;;;;;;;6.95;1.50;;;;;;;;;;4939291;29;20039;-84
2022/05/25 16:57:20;;;;;;;7.03;1.20;;;;;;;;;;4936802;29;20052;-84
2022/05/25 16:59:47;;;;;;;5.57;1.00;;;;;;;;;;4955681;28;20110;-85
2022/05/25 17:02:14;;;;;;;9.65;1.33;;;;;;;;;;4952421;28;20079;-83
2022/05/25 17:04:40;;;;;;;7.15;1.15;;;;;;;;;;4936444;29;20126;-87
2022/05/25 17:07:25;;;;;;;6.85;1.10;;;;;;;;;;4918762;28;20491;-85
2022/05/25 17:09:51;;;;;;;6.00;1.38;;;;;;;;;;4956526;28;20043;-83
2022/05/25 17:15:18;;;;;;;9.95;1.75;;;;;;;;;;4935714;28;20059;-82
2022/05/25 17:21:04;;;;;;;9.38;1.70;;;;;;;;;;4948293;28;20062;-84
2022/05/25 17:23:58;;;;;;;5.35;1.48;;;;;;;;;;4934603;28;20059;-83
2022/05/25 17:26:58;;;;;;;5.90;1.65;;;;;;;;;;4951308;28;20054;-83
2022/05/25 17:29:25;;;;;;;7.43;1.02;;;;;;;;;;4951039;28;20130;-84
2022/05/25 17:35:23;;;;;;;7.05;1.23;;;;;;;;;;4919822;29;20063;-85
2022/05/25 17:44:22;;;;;;;6.47;1.50;;;;;;;;;;4911717;29;20579;-84
2022/05/25 17:46:50;;;;;;;6.55;1.40;;;;;;;;;;4892991;29;20056;-86
2022/05/25 17:49:17;;;;;;;9.38;1.90;;;;;;;;;;4901048;29;20062;-85
2022/05/25 17:52:01;;;;;;;6.32;1.73;;;;;;;;;;4897116;29;20092;-87
2022/05/25 17:54:34;;;;;;;9.32;1.80;;;;;;;;;;4885675;29;20041;-85
2022/05/25 17:57:10;;;;;;;4.82;1.52;;;;;;;;;;4894184;29;20060;-87
2022/05/25 17:59:46;;;;;;;10.85;2.10;;;;;;;;;;4931000;28;20067;-83
2022/05/25 18:02:18;;;;;;;6.22;1.45;;;;;;;;;;4945677;28;20055;-85
2022/05/25 18:11:35;;;;;;;10.18;1.48;;;;;;;;;;4958282;23;20056;-83
2022/05/25 18:14:16;;;;;;;9.20;2.05;;;;;;;;;;4934971;29;20047;-86
2022/05/25 18:16:59;;;;;;;12.65;1.73;;;;;;;;;;4917100;29;20055;-86
2022/05/25 18:22:48;;;;;;;5.85;1.52;;;;;;;;;;4939178;29;20124;-83
2022/05/25 18:31:37;;;;;;;7.60;1.67;;;;;;;;;;4946301;23;20426;-86
2022/05/25 18:37:33;;;;;;;8.02;2.67;;;;;;;;;;4947740;28;20162;-83
2022/05/25 18:39:59;;;;;;;7.75;2.08;;;;;;;;;;4941640;28;20390;-84
2022/05/25 18:42:25;;;;;;;6.38;2.05;;;;;;;;;;4969043;28;20070;-87
2022/05/25 18:44:52;;;;;;;3.13;1.50;;;;;;;;;;4951072;29;20103;-90
2022/05/25 18:47:22;;;;;;;5.10;1.90;;;;;;;;;;4937509;23;20060;-83
2022/05/25 18:49:49;;;;;;;8.45;2.30;;;;;;;;;;4934697;29;20216;-87
2022/05/25 18:52:16;;;;;;;5.63;2.25;;;;;;;;;;4929473;29;20044;-85
2022/05/25 18:54:44;;;;;;;5.90;2.30;;;;;;;;;;4913609;29;20044;-85
2022/05/25 18:57:11;;;;;;;6.50;2.60;;;;;;;;;;4949021;28;20103;-84
2022/05/25 18:59:37;;;;;;;4.82;2.10;;;;;;;;;;4928848;29;20079;-85
2022/05/25 19:02:15;;;;;;;8.55;2.55;;;;;;;;;;4933175;29;20071;-84
2022/05/25 19:04:50;;;;;;;5.82;2.33;;;;;;;;;;4920642;29;20099;-87
2022/05/25 19:07:44;;;;;;;10.02;2.05;;;;;;;;;;4927576;29;20067;-84
2022/05/25 19:10:29;;;;;;;6.47;2.22;;;;;;;;;;4923741;29;20044;-83
2022/05/25 19:12:56;;;;;;;7.50;2.03;;;;;;;;;;4930873;29;20126;-83
2022/05/25 19:15:22;;;;;;;6.05;2.17;;;;;;;;;;4935711;29;20220;-82
2022/05/25 19:17:51;;;;;;;10.30;2.40;;;;;;;;;;4935637;29;20039;-82
2022/05/25 19:20:21;;;;;;;6.18;2.30;;;;;;;;;;4934406;29;20436;-81
2022/05/25 19:26:05;;;;;;;4.93;2.10;;;;;;;;;;4890863;29;20455;-83
2022/05/25 19:28:32;;;;;;;4.93;2.47;;;;;;;;;;4928583;29;20048;-87
2022/05/25 19:30:58;;;;;;;10.05;2.63;;;;;;;;;;4914463;29;20052;-83
2022/05/25 19:36:21;;;;;;;5.85;2.40;;;;;;;;;;4947570;23;20067;-84
2022/05/25 19:47:48;;;;;;;5.72;2.72;;;;;;;;;;4959416;28;20046;-82
2022/05/25 19:56:18;;;;;;;7.82;2.50;;;;;;;;;;4970279;23;20419;-87
2022/05/25 19:58:55;;;;;;;3.60;2.28;;;;;;;;;;4941918;28;20046;-83
2022/05/25 20:01:31;;;;;;;2.70;2.15;;;;;;;;;;4941704;28;20051;-83
2022/05/25 20:03:57;;;;;;;4.35;2.72;;;;;;;;;;4951632;28;20043;-86
2022/05/25 20:06:23;;;;;;;4.53;2.08;;;;;;;;;;4952789;28;20061;-83
2022/05/25 20:08:56;;;;;;;4.00;2.58;;;;;;;;;;4940011;29;20054;-83
2022/05/25 20:11:23;;;;;;;2.97;2.70;;;;;;;;;;4944398;29;20068;-83
2022/05/25 20:13:49;;;;;;;6.10;2.63;;;;;;;;;;4929705;29;20055;-83
2022/05/25 20:16:17;;;;;;;3.00;2.70;;;;;;;;;;4945624;28;20054;-82
2022/05/25 20:18:43;;;;;;;4.82;3.05;;;;;;;;;;4944316;29;21279;-83
2022/05/25 20:21:25;;;;;;;3.70;2.80;;;;;;;;;;4943507;28;20035;-83
2022/05/25 20:23:52;;;;;;;3.90;3.30;;;;;;;;;;4957138;28;20048;-82
2022/05/25 20:26:18;;;;;;;5.28;3.67;;;;;;;;;;4942191;29;20065;-82
2022/05/25 20:28:44;;;;;;;4.22;3.63;;;;;;;;;;4940614;28;20049;-81
2022/05/25 20:31:11;;;;;;;5.32;4.40;;;;;;;;;;4942711;28;20055;-84
2022/05/25 20:33:37;;;;;;;6.35;4.25;;;;;;;;;;4958369;28;20027;-81
2022/05/25 20:36:03;;;;;;;5.65;4.65;;;;;;;;;;4962422;28;20043;-84
2022/05/25 20:38:39;;;;;;;6.47;5.25;;;;;;;;;;4945313;29;20074;-89
2022/05/25 20:41:05;;;;;;;9.48;6.57;;;;;;;;;;4936731;28;20039;-91
2022/05/25 20:43:32;;;;;;;8.27;6.60;;;;;;;;;;4942343;28;20495;-88
2022/05/25 20:46:01;;;;;;;9.13;6.88;;;;;;;;;;4922934;29;20039;-88
2022/05/25 20:48:32;;;;;;;10.90;7.28;;;;;;;;;;4954860;28;20074;-91
2022/05/25 20:51:00;;;;;;;12.98;6.93;;;;;;;;;;4954822;28;20040;-86
2022/05/25 20:53:28;;;;;;;13.07;8.40;;;;;;;;;;4940604;29;20129;-85
2022/05/25 20:55:58;;;;;;;15.40;8.50;;;;;;;;;;4940253;29;20551;-84
2022/05/25 20:58:27;;;;;;;11.15;8.00;;;;;;;;;;4920736;28;20047;-89
2022/05/25 21:01:05;;;;;;;16.35;8.48;;;;;;;;;;4950799;23;20072;-90
2022/05/25 21:03:38;;;;;;;12.07;9.23;;;;;;;;;;4881493;29;20087;-87
2022/05/25 21:06:20;;;;;;;13.35;8.98;;;;;;;;;;4902562;29;20040;-92
2022/05/25 21:08:46;;;;;;;11.23;8.40;;;;;;;;;;4905217;29;20051;-91
2022/05/25 21:11:13;;;;;;;14.45;9.48;;;;;;;;;;4907560;29;20668;-89
2022/05/25 21:13:45;;;;;;;17.02;9.40;;;;;;;;;;4913043;29;20076;-87
2022/05/25 21:16:12;;;;;;;14.73;8.13;;;;;;;;;;5083270;23;20075;-95
2022/05/25 21:18:44;;;;;;;16.00;10.05;;;;;;;;;;4921733;29;20044;-90
2022/05/25 21:21:10;;;;;;;15.43;10.60;;;;;;;;;;4932777;29;20035;-88
2022/05/25 21:23:36;;;;;;;19.70;11.77;;;;;;;;;;4914836;29;20043;-91
2022/05/25 21:29:13;;;;;;;19.80;11.85;;;;;;;;;;4920437;29;20099;-88
2022/05/25 21:34:23;;;;;;;22.10;12.32;;;;;;;;;;4953215;28;20056;-86
2022/05/25 21:36:54;;;;;;;25.00;13.57;;;;;;;;;;4954531;29;20052;-88
2022/05/25 21:39:38;;;;;;;24.70;12.68;;;;;;;;;;4908704;29;20151;-94
2022/05/25 21:52:43;;;;;;;19.60;12.80;;;13.50;99.90;;;;;;4906063;29;19918;-92
2022/05/25 21:58:32;;;;;;;24.92;13.25;;;;;;;;;;4908726;29;20052;-87
2022/05/25 22:01:22;;;;;;;20.33;12.77;;;;;;;;;;4885623;29;20076;-92
2022/05/25 22:07:27;;;;;;;24.35;13.40;;;;;;;;;;4903201;29;20075;-91
2022/05/25 22:13:46;;;;;;;23.50;11.30;;;;;;;;;;5053194;23;20264;-87
2022/05/25 22:16:16;;;;;;;27.15;14.82;;;;;;;;;;4948456;29;20059;-90
2022/05/25 22:19:03;;;;;;;28.20;14.38;;;;;;;;;;4934477;29;20058;-91
2022/05/25 22:21:29;;;;;;;20.73;13.15;;;;;;;;;;4947363;29;20048;-94
2022/05/25 22:24:03;;;;;;;33.08;14.57;;;;;;;;;;4949717;29;20032;-89
2022/05/25 22:26:29;;;;;;;27.00;15.80;;;;;;;;;;4951201;29;20051;-85
2022/05/25 22:28:59;;;;;;;28.23;14.75;;;;;;;;;;4929943;29;20035;-92
2022/05/25 22:31:32;;;;;;;27.15;14.15;;;;;;;;;;4922467;29;20041;-90
2022/05/25 22:34:00;;;;;;;26.67;14.23;;;;;;;;;;4908488;29;20519;-88
2022/05/25 22:36:30;;;;;;;31.58;14.43;;;;;;;;;;4934471;29;20055;-91
2022/05/25 22:38:56;;;;;;;25.75;13.38;;;;;;;;;;4920564;29;20047;-87
2022/05/25 22:41:23;;;;;;;23.63;13.57;;;;;;;;;;4923166;29;20076;-92
2022/05/25 22:43:49;;;;;;;27.00;13.48;;;;;;;;;;4920742;29;20039;-88
2022/05/25 22:46:15;;;;;;;24.17;13.43;;;;;;;;;;4918328;29;20060;-90
2022/05/25 22:51:16;;;;;;;25.38;13.40;;;;;;;;;;5489002;23;20071;-87
2022/05/25 22:53:43;;;;;;;34.42;13.73;;;;;;;;;;4915997;29;20044;-86
2022/05/25 22:56:10;;;;;;;29.35;13.85;;;;;;;;;;4922745;29;20051;-91
2022/05/25 22:58:39;;;;;;;29.67;13.52;;;;;;;;;;4894737;29;20070;-88
2022/05/25 23:01:05;;;;;;;33.63;13.73;;;;;;;;;;4919645;29;20040;-86
2022/05/25 23:03:33;;;;;;;27.55;13.45;;;;;;;;;;4920847;29;20074;-91